Time;durP1;ratioP1;P1;durP2;ratioP2;P2;SDS_P1;SDS_P2;PMS_P1;PMS_P2;Temp;Humidity;BMP_temperature;BMP_pressure;BME280_temperature;BME280_humidity;BME280_pressure;Samples;Min_cycle;Max_cycle;Signal;HPM_P1;HPM_P2
2021/08/20 08:43:01;;;;;;;5.35;4.57;;;24.70;49.20;;;;;;5014701;28;20243;-82
2021/08/20 08:45:28;;;;;;;6.53;4.47;;;25.10;43.40;;;;;;5016259;28;20219;-81
2021/08/20 08:47:56;;;;;;;4.93;4.15;;;25.20;42.40;;;;;;5015676;28;20754;-82
2021/08/20 08:50:23;;;;;;;8.55;4.80;;;25.10;43.10;;;;;;5018846;28;20201;-81
2021/08/20 08:52:50;;;;;;;4.95;4.45;;;25.10;41.50;;;;;;5020050;28;20255;-81
2021/08/20 08:55:17;;;;;;;6.95;5.07;;;24.60;42.30;;;;;;5018375;28;20281;-81
2021/08/20 08:57:44;;;;;;;5.60;4.85;;;24.30;44.90;;;;;;5026794;28;20685;-81
2021/08/20 09:00:14;;;;;;;6.47;4.90;;;24.10;47.40;;;;;;5025616;28;20261;-82
2021/08/20 09:02:41;;;;;;;6.93;5.18;;;23.70;46.40;;;;;;5016079;28;20709;-81
2021/08/20 09:05:11;;;;;;;7.95;5.15;;;23.80;45.90;;;;;;5013659;28;20242;-83
2021/08/20 09:07:39;;;;;;;5.28;4.45;;;24.00;46.60;;;;;;5012429;28;20231;-83
2021/08/20 09:10:19;;;;;;;7.38;5.70;;;24.20;47.80;;;;;;5015353;28;20540;-82
2021/08/20 09:12:54;;;;;;;7.88;5.38;;;24.30;45.50;;;;;;5017136;28;20602;-81
2021/08/20 09:15:25;;;;;;;5.70;4.88;;;23.90;48.30;;;;;;5013521;28;20651;-82
2021/08/20 09:17:54;;;;;;;7.18;5.15;;;24.00;49.00;;;;;;5013960;28;20237;-83
2021/08/20 09:20:23;;;;;;;6.32;4.70;;;24.10;48.00;;;;;;5017366;28;20238;-81
2021/08/20 09:22:52;;;;;;;8.25;5.32;;;24.10;47.60;;;;;;5016003;28;20227;-82
2021/08/20 09:25:37;;;;;;;6.90;5.78;;;24.10;47.50;;;;;;5016992;28;20207;-84
2021/08/20 09:28:15;;;;;;;7.30;5.38;;;24.00;46.20;;;;;;5002519;28;20702;-83
2021/08/20 09:30:57;;;;;;;9.23;6.13;;;24.30;47.60;;;;;;5013241;28;20672;-83
2021/08/20 09:33:26;;;;;;;6.15;5.45;;;24.50;44.80;;;;;;4998053;28;20247;-83
2021/08/20 09:35:57;;;;;;;6.03;5.30;;;24.30;44.90;;;;;;4992446;28;20203;-83
2021/08/20 09:38:24;;;;;;;6.07;5.47;;;24.20;46.30;;;;;;4994043;28;20208;-83
2021/08/20 09:40:55;;;;;;;8.68;5.78;;;24.30;44.80;;;;;;4993568;28;20218;-84
2021/08/20 09:43:27;;;;;;;27.23;24.45;;;24.10;44.50;;;;;;4981962;28;20203;-83
2021/08/20 09:46:05;;;;;;;7.30;5.25;;;24.00;47.40;;;;;;4994662;28;20210;-83
2021/08/20 09:48:51;;;;;;;7.15;5.63;;;24.00;46.60;;;;;;4989978;28;20238;-86
2021/08/20 09:51:35;;;;;;;6.93;5.43;;;24.10;48.60;;;;;;4987467;28;20581;-81
2021/08/20 09:54:04;;;;;;;8.98;5.38;;;24.50;44.60;;;;;;4983354;28;20204;-85
2021/08/20 09:56:31;;;;;;;7.07;5.38;;;24.70;40.90;;;;;;4992280;28;20258;-83
2021/08/20 09:59:00;;;;;;;5.32;4.82;;;25.10;43.00;;;;;;4995501;28;20302;-84
2021/08/20 10:01:32;;;;;;;5.40;4.90;;;26.00;38.10;;;;;;4994766;28;20241;-86
2021/08/20 10:04:00;;;;;;;6.38;5.35;;;26.30;37.00;;;;;;4995066;28;20202;-83
2021/08/20 10:06:31;;;;;;;6.30;5.03;;;26.60;37.20;;;;;;4994296;28;20694;-85
2021/08/20 10:09:00;;;;;;;5.85;5.25;;;26.10;35.20;;;;;;4993330;28;20690;-85
2021/08/20 10:11:29;;;;;;;5.28;4.05;;;27.00;31.10;;;;;;4993267;28;20326;-85
2021/08/20 10:13:59;;;;;;;5.97;4.57;;;28.00;29.80;;;;;;4992428;28;20199;-84
2021/08/20 10:16:27;;;;;;;5.63;4.78;;;29.30;24.70;;;;;;4991898;28;20695;-84
2021/08/20 10:18:56;;;;;;;5.15;4.45;;;29.70;21.80;;;;;;4992516;28;20199;-85
2021/08/20 10:21:23;;;;;;;4.10;3.72;;;30.20;23.20;;;;;;4996736;28;20238;-83
2021/08/20 10:23:50;;;;;;;4.00;3.63;;;31.40;21.90;;;;;;5000477;28;20242;-83
2021/08/20 10:26:18;;;;;;;3.63;3.33;;;33.00;18.10;;;;;;4992449;28;20755;-84
2021/08/20 10:28:46;;;;;;;3.20;3.00;;;33.60;15.70;;;;;;4994597;28;20587;-87
2021/08/20 10:31:16;;;;;;;3.67;3.38;;;34.40;12.20;;;;;;4994617;28;20231;-87
2021/08/20 10:33:43;;;;;;;3.85;3.55;;;34.70;13.20;;;;;;4995078;28;20322;-87
2021/08/20 10:36:11;;;;;;;4.13;3.83;;;34.80;13.80;;;;;;4995437;28;20250;-87
2021/08/20 10:38:44;;;;;;;4.28;3.88;;;34.90;13.30;;;;;;4995317;28;20294;-88
2021/08/20 10:41:13;;;;;;;4.25;3.83;;;33.20;11.90;;;;;;5008296;28;20293;-87
2021/08/20 10:44:00;;;;;;;4.03;3.72;;;32.30;14.90;;;;;;5000017;28;20723;-83
2021/08/20 10:47:07;;;;;;;3.50;3.30;;;32.10;15.10;;;;;;5001057;28;20202;-85
2021/08/20 10:49:48;;;;;;;3.72;3.45;;;31.90;17.60;;;;;;5000391;28;20563;-83
2021/08/20 10:52:31;;;;;;;3.88;3.30;;;32.10;13.90;;;;;;4990276;28;20201;-85
2021/08/20 10:55:21;;;;;;;7.45;6.75;;;33.20;13.40;;;;;;5001515;28;20196;-84
2021/08/20 10:58:03;;;;;;;7.32;6.60;;;33.10;13.40;;;;;;5000450;28;20250;-84
2021/08/20 11:00:31;;;;;;;4.07;3.78;;;32.00;12.80;;;;;;4986411;28;20282;-85
2021/08/20 11:02:59;;;;;;;3.67;3.30;;;29.30;17.60;;;;;;4991280;28;20243;-85
2021/08/20 11:05:49;;;;;;;3.90;3.15;;;29.80;19.50;;;;;;4987167;28;20203;-85
2021/08/20 11:08:45;;;;;;;3.40;3.10;;;29.70;18.10;;;;;;4990638;28;20223;-86
2021/08/20 11:11:48;;;;;;;3.40;3.10;;;29.80;19.30;;;;;;4985494;28;20216;-85
2021/08/20 11:14:34;;;;;;;3.95;3.42;;;29.20;20.90;;;;;;4994967;28;20270;-84
2021/08/20 11:17:02;;;;;;;3.08;2.78;;;29.20;18.20;;;;;;4995101;28;20306;-85
2021/08/20 11:19:49;;;;;;;4.40;2.97;;;28.70;18.90;;;;;;4993780;28;20565;-86
2021/08/20 11:22:21;;;;;;;3.08;2.78;;;27.70;20.00;;;;;;4981016;28;20235;-84
2021/08/20 11:25:09;;;;;;;4.18;2.88;;;27.60;22.50;;;;;;4996570;28;20294;-85
2021/08/20 11:27:36;;;;;;;3.75;3.08;;;27.70;22.30;;;;;;4996065;28;20286;-83
2021/08/20 11:30:04;;;;;;;5.40;3.63;;;27.20;22.10;;;;;;4998611;28;20266;-83
2021/08/20 11:35:37;;;;;;;3.35;3.05;;;27.00;22.80;;;;;;5506526;23;20222;-83
2021/08/20 11:38:04;;;;;;;3.60;2.70;;;26.40;23.50;;;;;;5014106;28;20254;-83
2021/08/20 11:40:33;;;;;;;4.32;2.88;;;26.30;25.00;;;;;;5014167;28;20194;-84
2021/08/20 11:43:09;;;;;;;5.15;2.80;;;26.40;24.90;;;;;;5033611;28;20639;-83
2021/08/20 11:45:36;;;;;;;3.38;2.83;;;26.30;25.10;;;;;;5032554;28;20725;-83
2021/08/20 11:48:04;;;;;;;3.42;3.10;;;25.80;24.90;;;;;;5029236;28;20214;-83
2021/08/20 11:50:33;;;;;;;3.72;2.90;;;25.50;25.70;;;;;;5032006;28;20198;-87
2021/08/20 11:53:00;;;;;;;5.68;3.08;;;25.60;28.70;;;;;;5017144;28;20222;-82
2021/08/20 11:55:27;;;;;;;3.55;2.65;;;25.40;26.40;;;;;;5014110;28;20195;-82
2021/08/20 11:57:57;;;;;;;3.20;2.90;;;25.50;29.60;;;;;;5012635;28;20230;-83
2021/08/20 12:00:37;;;;;;;3.30;2.72;;;25.80;29.70;;;;;;5016821;28;20221;-83
2021/08/20 12:03:08;;;;;;;3.33;3.03;;;26.20;25.10;;;;;;5010507;28;20219;-83
2021/08/20 12:05:35;;;;;;;3.95;2.97;;;26.50;26.70;;;;;;5003431;28;20341;-82
2021/08/20 12:08:14;;;;;;;3.42;3.05;;;26.40;24.00;;;;;;5014922;28;20215;-85
2021/08/20 12:10:44;;;;;;;3.42;2.97;;;26.60;25.50;;;;;;5014815;28;20646;-83
2021/08/20 12:13:13;;;;;;;3.10;2.90;;;26.70;25.60;;;;;;5016292;28;20225;-83
2021/08/20 12:15:41;;;;;;;3.42;3.10;;;27.00;25.50;;;;;;5014258;28;20206;-86
2021/08/20 12:18:25;;;;;;;3.17;2.88;;;26.70;25.50;;;;;;5015172;28;20213;-86
2021/08/20 12:20:53;;;;;;;3.92;3.03;;;26.70;24.00;;;;;;5014749;28;20199;-83
2021/08/20 12:23:20;;;;;;;3.95;3.55;;;26.40;25.40;;;;;;5015859;28;20609;-83
2021/08/20 12:25:47;;;;;;;19.75;5.82;;;26.70;27.20;;;;;;5014502;28;20545;-83
2021/08/20 12:28:17;;;;;;;3.15;2.85;;;26.60;24.60;;;;;;5010171;28;20581;-82
2021/08/20 12:30:46;;;;;;;5.03;3.00;;;26.60;24.60;;;;;;5015809;28;20578;-84
2021/08/20 12:33:14;;;;;;;3.00;2.70;;;26.70;22.50;;;;;;5015697;28;20313;-82
2021/08/20 12:35:51;;;;;;;3.20;2.90;;;26.50;22.80;;;;;;5011106;28;20216;-88
2021/08/20 12:38:19;;;;;;;4.38;3.03;;;26.10;23.80;;;;;;5004024;28;20253;-81
2021/08/20 12:40:48;;;;;;;3.13;2.90;;;26.30;26.40;;;;;;5017136;28;20614;-83
2021/08/20 12:43:28;;;;;;;4.15;2.90;;;26.50;25.00;;;;;;5034908;28;20629;-82
2021/08/20 12:46:10;;;;;;;3.47;3.13;;;25.60;23.30;;;;;;5032583;28;20198;-82
2021/08/20 12:48:38;;;;;;;2.95;2.67;;;25.50;26.70;;;;;;5031273;28;20685;-87
2021/08/20 12:51:07;;;;;;;5.60;3.17;;;25.70;26.90;;;;;;5034071;28;20228;-82
2021/08/20 12:53:36;;;;;;;2.80;2.60;;;25.60;24.80;;;;;;5024251;28;20209;-83
2021/08/20 12:56:04;;;;;;;3.75;2.83;;;25.50;25.80;;;;;;5037287;28;20223;-82
2021/08/20 12:58:34;;;;;;;2.95;2.67;;;25.10;27.90;;;;;;5038458;28;20199;-82
2021/08/20 13:01:02;;;;;;;3.15;2.85;;;25.00;29.10;;;;;;5039141;28;20225;-84
2021/08/20 13:03:29;;;;;;;4.13;2.78;;;25.20;26.30;;;;;;5039087;28;20206;-82
2021/08/20 13:05:57;;;;;;;2.83;2.60;;;25.00;26.30;;;;;;5038993;28;20230;-82
2021/08/20 13:08:26;;;;;;;4.50;2.90;;;25.10;27.40;;;;;;5040592;28;20313;-82
2021/08/20 13:10:54;;;;;;;4.85;3.03;;;25.10;27.10;;;;;;5041041;28;20226;-84
2021/08/20 13:13:21;;;;;;;4.28;2.50;;;25.20;26.80;;;;;;5038983;28;20203;-82
2021/08/20 13:15:50;;;;;;;3.65;2.70;;;25.30;26.70;;;;;;5036272;28;20190;-82
2021/08/20 13:18:17;;;;;;;3.45;2.80;;;25.40;27.00;;;;;;5019302;28;20638;-82
2021/08/20 13:20:45;;;;;;;3.13;2.88;;;25.60;24.90;;;;;;5015010;28;20698;-87
2021/08/20 13:23:12;;;;;;;3.65;2.90;;;25.90;25.20;;;;;;5006807;28;20195;-81
2021/08/20 13:25:40;;;;;;;5.53;4.88;;;26.20;25.10;;;;;;5007328;28;20206;-84
2021/08/20 13:28:07;;;;;;;3.20;2.90;;;26.00;25.10;;;;;;5015425;28;20192;-83
2021/08/20 13:30:34;;;;;;;2.97;2.78;;;25.60;26.10;;;;;;5016432;28;20204;-83
2021/08/20 13:33:03;;;;;;;3.17;2.83;;;25.50;27.00;;;;;;5015792;28;20223;-82
2021/08/20 13:35:30;;;;;;;3.80;2.88;;;25.60;27.00;;;;;;5017990;28;20214;-83
2021/08/20 13:37:57;;;;;;;4.68;3.05;;;25.40;26.40;;;;;;5019374;28;20242;-82
2021/08/20 13:40:28;;;;;;;3.85;2.50;;;25.20;26.80;;;;;;5021316;28;20199;-83
2021/08/20 13:42:57;;;;;;;3.30;3.00;;;25.00;28.20;;;;;;5018398;28;20675;-84
2021/08/20 13:45:24;;;;;;;3.30;2.95;;;24.90;27.80;;;;;;5027217;28;20266;-85
2021/08/20 13:47:51;;;;;;;3.05;2.70;;;25.10;29.00;;;;;;5018730;28;20226;-82
2021/08/20 13:50:19;;;;;;;4.22;3.15;;;25.40;25.10;;;;;;5020381;28;20222;-82
2021/08/20 13:52:46;;;;;;;3.63;2.88;;;25.60;24.90;;;;;;5017028;28;20277;-82
2021/08/20 13:55:13;;;;;;;3.15;2.95;;;25.80;24.90;;;;;;5016946;28;20250;-83
2021/08/20 13:57:40;;;;;;;2.60;2.40;;;26.10;24.40;;;;;;5013462;28;20667;-82
2021/08/20 14:00:08;;;;;;;3.20;2.90;;;26.10;23.30;;;;;;5014579;28;20290;-84
2021/08/20 14:02:34;;;;;;;3.13;2.83;;;26.10;25.10;;;;;;5017064;28;20229;-81
2021/08/20 14:05:01;;;;;;;3.72;3.28;;;26.20;25.50;;;;;;5019952;28;20203;-81
2021/08/20 14:07:30;;;;;;;3.60;3.20;;;26.10;24.30;;;;;;5021570;28;20335;-81
2021/08/20 14:09:58;;;;;;;4.63;2.90;;;25.90;24.60;;;;;;5011289;28;20701;-85
2021/08/20 14:12:25;;;;;;;3.20;2.90;;;25.40;26.60;;;;;;5010726;28;20251;-82
2021/08/20 14:14:51;;;;;;;12.43;7.80;;;25.50;26.10;;;;;;5008174;28;20278;-82
2021/08/20 14:17:18;;;;;;;7.22;4.97;;;25.80;26.90;;;;;;5015538;28;20314;-82
2021/08/20 14:19:45;;;;;;;8.25;4.10;;;26.00;25.10;;;;;;5016449;28;20290;-84
2021/08/20 14:22:12;;;;;;;5.00;3.10;;;25.90;25.00;;;;;;5014730;28;20219;-82
2021/08/20 14:24:40;;;;;;;4.40;3.15;;;25.90;25.00;;;;;;5014902;28;20231;-84
2021/08/20 14:27:07;;;;;;;3.20;2.90;;;25.60;24.90;;;;;;5015354;28;20231;-82
2021/08/20 14:29:34;;;;;;;3.25;2.78;;;25.40;24.70;;;;;;5017969;28;20286;-83
2021/08/20 14:32:01;;;;;;;3.10;2.80;;;25.30;26.20;;;;;;5017745;28;20283;-85
2021/08/20 14:34:28;;;;;;;3.15;2.63;;;25.10;26.10;;;;;;5013486;28;20230;-84
2021/08/20 14:36:55;;;;;;;2.88;2.40;;;25.00;28.90;;;;;;5015245;28;20237;-83
2021/08/20 14:39:22;;;;;;;4.15;2.78;;;25.00;28.50;;;;;;5016196;28;20203;-84
2021/08/20 14:41:53;;;;;;;3.33;3.03;;;24.90;28.00;;;;;;5014905;28;20238;-84
2021/08/20 14:44:20;;;;;;;3.70;2.80;;;25.00;27.30;;;;;;5015516;28;20239;-83
2021/08/20 14:46:47;;;;;;;3.17;2.63;;;25.00;28.00;;;;;;5015420;28;20310;-84
2021/08/20 14:49:14;;;;;;;3.28;3.03;;;25.10;26.20;;;;;;5016128;28;20245;-83
2021/08/20 14:51:41;;;;;;;3.28;2.90;;;25.00;27.40;;;;;;5016084;28;20658;-84
2021/08/20 14:54:08;;;;;;;5.10;2.70;;;24.80;26.60;;;;;;5016007;28;20274;-84
2021/08/20 14:56:39;;;;;;;3.95;3.03;;;24.90;26.70;;;;;;5020948;28;20209;-86
2021/08/20 14:59:17;;;;;;;3.35;2.95;;;25.00;28.20;;;;;;5015627;28;20195;-85
2021/08/20 15:01:44;;;;;;;4.10;2.78;;;25.20;28.10;;;;;;5015414;28;20230;-84
2021/08/20 15:04:11;;;;;;;3.60;3.30;;;25.20;27.70;;;;;;5006279;28;20195;-84
2021/08/20 15:06:38;;;;;;;3.13;2.83;;;25.20;26.20;;;;;;4997064;28;20778;-84
2021/08/20 15:09:05;;;;;;;3.20;2.80;;;25.10;27.00;;;;;;5015630;28;20317;-85
2021/08/20 15:12:32;;;;;;;3.65;2.88;;;24.90;26.30;;;;;;5015686;28;20285;-84
2021/08/20 15:15:10;;;;;;;3.70;2.90;;;24.60;27.80;;;;;;5017758;28;20599;-83
2021/08/20 15:17:37;;;;;;;3.13;2.78;;;24.20;29.00;;;;;;5020398;28;20765;-84
2021/08/20 15:20:21;;;;;;;3.40;3.05;;;23.90;29.90;;;;;;5019940;28;20199;-84
2021/08/20 15:22:48;;;;;;;4.85;3.28;;;23.80;31.40;;;;;;5013224;28;20311;-83
2021/08/20 15:25:15;;;;;;;4.68;2.90;;;23.70;31.60;;;;;;5021463;28;20234;-84
2021/08/20 15:27:42;;;;;;;4.20;2.88;;;23.70;33.30;;;;;;5020258;28;20310;-84
2021/08/20 15:30:11;;;;;;;4.50;3.30;;;23.80;33.00;;;;;;5021106;28;20223;-83
2021/08/20 15:32:40;;;;;;;4.68;3.00;;;23.90;31.10;;;;;;5025759;28;20291;-83
2021/08/20 15:35:08;;;;;;;4.13;3.20;;;23.90;31.50;;;;;;5023450;28;20211;-84
2021/08/20 15:37:35;;;;;;;3.17;2.97;;;23.80;30.30;;;;;;5022804;28;20223;-84
2021/08/20 15:40:02;;;;;;;3.47;2.97;;;23.90;30.50;;;;;;5010820;28;20297;-83
2021/08/20 15:42:29;;;;;;;3.13;2.83;;;24.00;29.60;;;;;;5022687;28;20309;-83
2021/08/20 15:44:56;;;;;;;3.33;3.03;;;24.00;30.00;;;;;;5024076;28;20258;-83
2021/08/20 15:47:24;;;;;;;3.10;2.80;;;24.00;30.40;;;;;;5023302;28;20230;-83
2021/08/20 15:49:52;;;;;;;2.80;2.60;;;23.80;32.10;;;;;;5024584;28;20234;-84
2021/08/20 15:53:15;;;;;;;4.75;3.00;;;23.70;32.50;;;;;;5024965;28;20230;-83
2021/08/20 15:55:46;;;;;;;5.72;3.17;;;23.60;30.20;;;;;;5015887;28;20286;-84
2021/08/20 15:58:52;;;;;;;3.75;2.90;;;23.50;30.30;;;;;;5004539;28;20195;-83
2021/08/20 16:01:19;;;;;;;3.65;3.20;;;23.50;31.20;;;;;;5017153;28;20278;-83
2021/08/20 16:03:47;;;;;;;3.28;2.97;;;23.60;32.10;;;;;;5025237;28;20192;-83
2021/08/20 16:06:14;;;;;;;3.10;2.90;;;23.60;31.60;;;;;;5024478;28;20605;-84
2021/08/20 16:08:41;;;;;;;3.38;3.08;;;23.70;31.30;;;;;;5024538;28;20219;-84
2021/08/20 16:11:07;;;;;;;5.47;2.95;;;23.80;32.90;;;;;;5023193;28;20254;-83
2021/08/20 16:13:34;;;;;;;4.80;3.30;;;23.80;32.20;;;;;;5023532;28;20689;-84
2021/08/20 16:16:10;;;;;;;4.00;2.78;;;23.80;34.40;;;;;;5023349;28;20573;-83
2021/08/20 16:18:37;;;;;;;3.30;3.00;;;23.60;34.30;;;;;;5024102;28;20188;-84
2021/08/20 16:21:06;;;;;;;3.40;3.10;;;23.60;34.80;;;;;;5023055;28;20314;-83
2021/08/20 16:23:32;;;;;;;7.43;3.20;;;23.60;33.00;;;;;;5024134;28;20270;-83
2021/08/20 16:25:59;;;;;;;4.85;3.20;;;23.50;32.20;;;;;;5023310;28;20242;-83
2021/08/20 16:28:26;;;;;;;3.85;3.10;;;23.50;32.40;;;;;;5024060;28;20690;-83
2021/08/20 16:30:53;;;;;;;4.32;3.45;;;23.50;32.90;;;;;;5022986;28;20223;-84
2021/08/20 16:33:20;;;;;;;5.88;3.50;;;23.50;32.90;;;;;;5023650;28;20283;-84
2021/08/20 16:35:47;;;;;;;4.75;3.40;;;23.40;32.30;;;;;;5023622;28;20207;-84
2021/08/20 16:38:15;;;;;;;3.45;2.90;;;23.30;32.90;;;;;;5023810;28;20303;-83
2021/08/20 16:40:42;;;;;;;3.30;3.00;;;23.20;33.20;;;;;;5023348;28;20203;-83
2021/08/20 16:43:09;;;;;;;3.67;2.90;;;23.10;33.80;;;;;;5023799;28;20274;-83
2021/08/20 16:45:36;;;;;;;3.50;3.20;;;23.00;35.70;;;;;;5024734;28;20226;-83
2021/08/20 16:48:04;;;;;;;3.58;2.90;;;22.90;34.50;;;;;;5023657;28;20262;-83
2021/08/20 16:50:32;;;;;;;4.85;3.10;;;22.80;34.40;;;;;;5023367;28;20254;-84
2021/08/20 16:52:59;;;;;;;4.50;3.20;;;22.80;34.40;;;;;;5023903;28;20717;-83
2021/08/20 16:55:39;;;;;;;4.88;2.80;;;22.90;34.50;;;;;;5023762;28;20195;-84
2021/08/20 16:58:08;;;;;;;3.78;3.20;;;22.90;34.50;;;;;;5024188;28;20215;-83
2021/08/20 17:00:35;;;;;;;3.28;2.97;;;22.90;34.50;;;;;;5023784;28;20214;-85
2021/08/20 17:03:02;;;;;;;7.18;3.08;;;22.90;34.50;;;;;;5025156;28;20200;-83
